createdAt,value
2023-02-11T00:00:05.000Z,-2.22
2023-02-11T00:05:05.000Z,-2.26
2023-02-11T00:10:05.000Z,-2.31
2023-02-11T00:15:05.000Z,-2.32
2023-02-11T00:20:05.000Z,-2.32
2023-02-11T00:25:05.000Z,-2.35
2023-02-11T00:30:05.000Z,-2.36
2023-02-11T00:35:05.000Z,-2.38
2023-02-11T00:59:52.000Z,-2.41
2023-02-11T01:05:05.000Z,-2.41
2023-02-11T01:10:05.000Z,-2.36
2023-02-11T01:15:05.000Z,-2.41
2023-02-11T01:20:06.000Z,-2.46
2023-02-11T01:25:05.000Z,-2.47
2023-02-11T01:30:06.000Z,-2.54
2023-02-11T01:35:10.000Z,-2.61
2023-02-11T01:40:07.000Z,-2.63
2023-02-11T01:45:06.000Z,-2.67
2023-02-11T01:50:06.000Z,-2.74
2023-02-11T01:54:51.000Z,-2.77
2023-02-11T02:00:09.000Z,-2.75
2023-02-11T02:05:06.000Z,-2.75
2023-02-11T02:10:06.000Z,-2.77
2023-02-11T02:15:07.000Z,-2.81
2023-02-11T02:20:06.000Z,-2.86
2023-02-11T02:25:06.000Z,-2.88
2023-02-11T02:30:05.000Z,-2.90
2023-02-11T02:35:06.000Z,-2.96
2023-02-11T02:40:05.000Z,-2.98
2023-02-11T02:45:14.000Z,-3.04
2023-02-11T02:50:08.000Z,-3.03
2023-02-11T02:54:50.000Z,-2.98
2023-02-11T03:00:13.000Z,-3.03
2023-02-11T03:05:06.000Z,-3.04
2023-02-11T03:10:08.000Z,-3.04
2023-02-11T03:15:08.000Z,-3.05
2023-02-11T03:20:08.000Z,-3.08
2023-02-11T03:25:05.000Z,-3.11
2023-02-11T03:30:09.000Z,-3.13
2023-02-11T03:35:07.000Z,-3.11
2023-02-11T03:40:06.000Z,-3.11
2023-02-11T03:45:08.000Z,-3.16
2023-02-11T03:50:06.000Z,-3.07
2023-02-11T03:55:06.000Z,-3.06
2023-02-11T03:59:50.000Z,-3.03
2023-02-11T04:05:05.000Z,-2.96
2023-02-11T04:10:06.000Z,-2.96
2023-02-11T04:15:06.000Z,-3.00
2023-02-11T04:20:07.000Z,-3.05
2023-02-11T04:25:06.000Z,-3.08
2023-02-11T04:30:06.000Z,-3.17
2023-02-11T04:35:06.000Z,-3.21
2023-02-11T04:40:05.000Z,-3.21
2023-02-11T04:45:05.000Z,-3.24
2023-02-11T04:50:05.000Z,-3.28
2023-02-11T04:55:05.000Z,-3.31
2023-02-11T05:00:07.000Z,-3.28
2023-02-11T05:05:05.000Z,-3.31
2023-02-11T05:10:05.000Z,-3.33
2023-02-11T05:15:05.000Z,-3.27
2023-02-11T05:20:05.000Z,-3.26
2023-02-11T05:25:05.000Z,-3.28
2023-02-11T05:30:06.000Z,-3.26
2023-02-11T05:35:05.000Z,-3.24
2023-02-11T05:40:05.000Z,-3.23
2023-02-11T05:45:05.000Z,-3.25
2023-02-11T05:50:05.000Z,-3.32
2023-02-11T05:55:05.000Z,-3.35
2023-02-11T06:00:05.000Z,-3.39
2023-02-11T06:05:05.000Z,-3.45
2023-02-11T06:10:05.000Z,-3.47
2023-02-11T06:15:05.000Z,-3.50
2023-02-11T06:20:05.000Z,-3.47
2023-02-11T06:25:05.000Z,-3.49
2023-02-11T06:30:05.000Z,-3.49
2023-02-11T06:35:05.000Z,-3.43
2023-02-11T06:40:05.000Z,-3.43
2023-02-11T06:45:05.000Z,-3.45
2023-02-11T06:50:05.000Z,-3.50
2023-02-11T06:55:06.000Z,-3.50
2023-02-11T07:00:06.000Z,-3.46
2023-02-11T07:05:05.000Z,-3.40
2023-02-11T07:10:05.000Z,-3.37
2023-02-11T07:15:05.000Z,-3.34
2023-02-11T07:20:05.000Z,-3.30
2023-02-11T07:25:05.000Z,-3.24
2023-02-11T07:30:06.000Z,-3.22
2023-02-11T07:35:05.000Z,-3.12
2023-02-11T07:40:05.000Z,-3.04
2023-02-11T07:45:05.000Z,-3.01
2023-02-11T07:50:05.000Z,-2.81
2023-02-11T07:55:05.000Z,-2.57
2023-02-11T08:00:05.000Z,-2.48
2023-02-11T08:05:05.000Z,-2.52
2023-02-11T08:10:05.000Z,-2.48
2023-02-11T08:15:05.000Z,-2.37
2023-02-11T08:20:05.000Z,-2.29
2023-02-11T08:25:06.000Z,-2.09
2023-02-11T08:30:05.000Z,-1.98
2023-02-11T08:35:05.000Z,-1.77
2023-02-11T08:40:05.000Z,-1.64
2023-02-11T08:45:05.000Z,-1.50
2023-02-11T08:50:05.000Z,-1.32
2023-02-11T08:55:05.000Z,-1.16
2023-02-11T09:00:06.000Z,-0.39
2023-02-11T09:05:05.000Z,0.27
2023-02-11T09:10:05.000Z,0.52
2023-02-11T09:15:05.000Z,0.60
2023-02-11T09:20:06.000Z,0.74
2023-02-11T09:25:05.000Z,0.99
2023-02-11T09:30:06.000Z,1.48
2023-02-11T09:35:05.000Z,1.76
2023-02-11T09:40:06.000Z,1.77
2023-02-11T09:45:05.000Z,1.71
2023-02-11T09:50:05.000Z,2.07
2023-02-11T09:55:05.000Z,2.45
2023-02-11T10:00:05.000Z,2.79
2023-02-11T10:05:05.000Z,3.21
2023-02-11T10:10:05.000Z,3.44
2023-02-11T10:15:05.000Z,3.56
2023-02-11T10:20:05.000Z,3.64
2023-02-11T10:25:05.000Z,3.79
2023-02-11T10:30:05.000Z,3.82
2023-02-11T10:35:05.000Z,4.04
2023-02-11T10:40:05.000Z,4.01
2023-02-11T10:45:05.000Z,4.18
2023-02-11T10:50:05.000Z,4.35
2023-02-11T10:55:05.000Z,4.78
2023-02-11T10:59:50.000Z,4.97
2023-02-11T11:05:05.000Z,5.28
2023-02-11T11:10:05.000Z,5.38
2023-02-11T11:15:05.000Z,5.45
2023-02-11T11:20:05.000Z,5.50
2023-02-11T11:25:05.000Z,5.51
2023-02-11T11:30:05.000Z,5.56
2023-02-11T11:35:05.000Z,5.61
2023-02-11T11:40:05.000Z,5.79
2023-02-11T11:45:05.000Z,5.89
2023-02-11T11:50:05.000Z,5.84
2023-02-11T11:55:05.000Z,5.89
2023-02-11T12:00:05.000Z,5.94
2023-02-11T12:05:05.000Z,5.98
2023-02-11T12:10:05.000Z,6.02
2023-02-11T12:15:05.000Z,5.99
2023-02-11T12:20:06.000Z,6.08
2023-02-11T12:25:05.000Z,6.12
2023-02-11T12:30:05.000Z,6.23
2023-02-11T12:35:05.000Z,6.35
2023-02-11T12:40:05.000Z,6.39
2023-02-11T12:45:06.000Z,6.42
2023-02-11T12:50:05.000Z,6.44
2023-02-11T12:55:05.000Z,6.46
2023-02-11T13:00:05.000Z,6.53
2023-02-11T13:05:07.000Z,6.66
2023-02-11T13:10:05.000Z,6.59
2023-02-11T13:15:06.000Z,6.71
2023-02-11T13:20:05.000Z,6.74
2023-02-11T13:25:05.000Z,6.80
2023-02-11T13:30:05.000Z,6.86
2023-02-11T13:35:05.000Z,7.08
2023-02-11T13:40:05.000Z,7.05
2023-02-11T13:45:05.000Z,6.98
2023-02-11T13:50:05.000Z,7.04
2023-02-11T13:55:05.000Z,7.14
2023-02-11T14:00:05.000Z,7.23
2023-02-11T14:05:05.000Z,7.20
2023-02-11T14:10:05.000Z,7.20
2023-02-11T14:15:05.000Z,7.32
2023-02-11T14:20:05.000Z,7.31
2023-02-11T14:25:05.000Z,7.25
2023-02-11T14:30:05.000Z,7.26
2023-02-11T14:35:05.000Z,7.14
2023-02-11T14:40:05.000Z,7.05
2023-02-11T14:45:06.000Z,7.15
2023-02-11T14:50:05.000Z,7.14
2023-02-11T14:55:06.000Z,6.89
2023-02-11T15:00:07.000Z,7.09
2023-02-11T15:05:05.000Z,7.03
2023-02-11T15:10:06.000Z,7.05
2023-02-11T15:15:05.000Z,6.72
2023-02-11T15:20:05.000Z,6.65
2023-02-11T15:25:05.000Z,6.49
2023-02-11T15:30:06.000Z,6.59
2023-02-11T15:35:05.000Z,6.42
2023-02-11T15:40:06.000Z,6.39
2023-02-11T15:45:06.000Z,6.21
2023-02-11T15:50:06.000Z,6.04
2023-02-11T15:55:05.000Z,5.80
2023-02-11T16:00:05.000Z,5.55
2023-02-11T16:05:05.000Z,5.37
2023-02-11T16:10:05.000Z,5.15
2023-02-11T16:15:05.000Z,4.97
2023-02-11T16:20:05.000Z,4.76
2023-02-11T16:25:06.000Z,4.57
2023-02-11T16:30:06.000Z,4.33
2023-02-11T16:35:05.000Z,4.04
2023-02-11T16:40:06.000Z,3.99
2023-02-11T16:45:06.000Z,3.90
2023-02-11T16:50:05.000Z,3.75
2023-02-11T16:55:05.000Z,3.58
2023-02-11T17:00:06.000Z,3.45
2023-02-11T17:05:05.000Z,3.12
2023-02-11T17:10:05.000Z,3.06
2023-02-11T17:15:05.000Z,2.91
2023-02-11T17:20:05.000Z,2.85
2023-02-11T17:25:05.000Z,2.78
2023-02-11T17:30:05.000Z,2.72
2023-02-11T17:35:05.000Z,2.51
2023-02-11T17:40:05.000Z,2.29
2023-02-11T17:45:05.000Z,2.04
2023-02-11T17:50:05.000Z,1.87
2023-02-11T17:55:06.000Z,1.86
2023-02-11T18:00:05.000Z,1.83
2023-02-11T18:05:06.000Z,1.82
2023-02-11T18:10:05.000Z,1.69
2023-02-11T18:15:05.000Z,1.57
2023-02-11T18:20:05.000Z,1.38
2023-02-11T18:25:05.000Z,1.31
2023-02-11T18:30:06.000Z,1.27
2023-02-11T18:35:05.000Z,1.11
2023-02-11T18:40:05.000Z,1.05
2023-02-11T18:45:05.000Z,0.96
2023-02-11T18:50:05.000Z,0.92
2023-02-11T18:55:06.000Z,0.94
2023-02-11T19:00:06.000Z,0.81
2023-02-11T19:05:05.000Z,0.74
2023-02-11T19:10:05.000Z,0.60
2023-02-11T19:15:05.000Z,0.51
2023-02-11T19:20:05.000Z,0.43
2023-02-11T19:25:05.000Z,0.37
2023-02-11T19:30:05.000Z,0.33
2023-02-11T19:35:05.000Z,0.21
2023-02-11T19:40:05.000Z,0.17
2023-02-11T19:45:05.000Z,0.13
2023-02-11T19:50:06.000Z,0.06
2023-02-11T19:55:05.000Z,-0.03
2023-02-11T20:00:06.000Z,-0.02
2023-02-11T20:05:05.000Z,-0.03
2023-02-11T20:10:05.000Z,-0.03
2023-02-11T20:15:06.000Z,-0.00
2023-02-11T20:20:06.000Z,-0.05
2023-02-11T20:25:06.000Z,-0.07
2023-02-11T20:30:05.000Z,-0.17
2023-02-11T20:35:05.000Z,-0.21
2023-02-11T20:40:06.000Z,-0.23
2023-02-11T20:45:06.000Z,-0.31
2023-02-11T20:50:05.000Z,-0.35
2023-02-11T20:55:06.000Z,-0.35
2023-02-11T21:00:07.000Z,-0.39
2023-02-11T21:05:06.000Z,-0.37
2023-02-11T21:10:05.000Z,-0.41
2023-02-11T21:15:06.000Z,-0.45
2023-02-11T21:20:06.000Z,-0.50
2023-02-11T21:25:06.000Z,-0.43
2023-02-11T21:30:06.000Z,-0.49
2023-02-11T21:35:06.000Z,-0.56
2023-02-11T21:39:54.000Z,-0.66
2023-02-11T21:45:06.000Z,-0.65
2023-02-11T21:50:06.000Z,-0.68
2023-02-11T21:55:06.000Z,-0.73
2023-02-11T22:00:06.000Z,-0.79
2023-02-11T22:05:06.000Z,-0.84
2023-02-11T22:10:06.000Z,-0.89
2023-02-11T22:15:06.000Z,-0.91
2023-02-11T22:20:06.000Z,-0.93
2023-02-11T22:25:06.000Z,-0.95
2023-02-11T22:30:06.000Z,-0.98
2023-02-11T22:35:06.000Z,-1.01
2023-02-11T22:40:06.000Z,-0.98
2023-02-11T22:45:06.000Z,-1.05
2023-02-11T22:50:06.000Z,-1.05
2023-02-11T22:55:06.000Z,-0.89
2023-02-11T23:00:07.000Z,-0.87
2023-02-11T23:05:06.000Z,-0.88
2023-02-11T23:10:06.000Z,-0.90
2023-02-11T23:15:06.000Z,-0.96
2023-02-11T23:20:06.000Z,-1.04
2023-02-11T23:25:06.000Z,-1.12
2023-02-11T23:30:06.000Z,-1.16
2023-02-11T23:35:06.000Z,-1.21
2023-02-11T23:40:06.000Z,-1.26
2023-02-11T23:45:06.000Z,-1.28
2023-02-11T23:50:06.000Z,-1.29
2023-02-11T23:55:06.000Z,-1.33
